^^
Grace C. Lehan Memorial Weather Station Historical Data
Daily Summary for April 21, 2021 Units:  English    Metric   Both
Daily Weekly Monthly Yearly
  High: Low: Average:
Temperature: 37.2 °F 19.9 °F 29 °F
Dew Point: 25.2 °F 11.4 °F 19.4 °F
Humidity: 78% 56.1% 67%
Wind Speed: 3.9mph 0mph 0.3mph
Wind Gust: 13mph - -
Wind- - SW
Pressure: 30.00 in 29.57 in -
Precipitation: 0.00 in    
 
 
Tabular Data for April 21, 2021
Time Temperature Dew Point Pressure Wind Wind Speed Wind Gust Humidity Rainfall Rate (Hourly) solar
00:04 23.6 °F 11.4 °F 30.00 in WNW 2.5 mph 10 mph 59.1% 0.00 in 0 W/m2
00:09 23.6 °F 11.8 °F 30.00 in WNW 2 mph 7 mph 60% 0.00 in 0 W/m2
00:14 23.5 °F 11.7 °F 30.00 in WNW 0.2 mph 7 mph 60% 0.00 in 0 W/m2
00:19 23.5 °F 11.7 °F 30.00 in WNW 2.2 mph 7 mph 60% 0.00 in 0 W/m2
00:24 23.5 °F 11.6 °F 30.00 in Calm   7 mph 60% 0.00 in 0 W/m2
00:29 23.4 °F 11.9 °F 30.00 in West 0.1 mph 7 mph 60.9% 0.00 in 0 W/m2
00:34 23.4 °F 11.9 °F 30.00 in West 0.6 mph 7 mph 61% 0.00 in 0 W/m2
00:39 23.3 °F 11.9 °F 30.00 in WNW 0.9 mph 7 mph 61% 0.00 in 0 W/m2
00:44 23.3 °F 11.8 °F 30.00 in WSW 2 mph 7 mph 60.8% 0.00 in 0 W/m2
00:49 23.3 °F 11.9 °F 30.00 in Calm   7 mph 61% 0.00 in 0 W/m2
00:54 23.3 °F 11.9 °F 30.00 in Calm   7 mph 61% 0.00 in 0 W/m2
00:59 23.3 °F 11.9 °F 30.00 in West 0.2 mph 7 mph 61% 0.00 in 0 W/m2
01:04 23.3 °F 12.2 °F 30.00 in West 0.4 mph 7 mph 61.8% 0.00 in 0 W/m2
01:09 23.3 °F 12.2 °F 30.00 in WNW 1 mph 6 mph 62% 0.00 in 0 W/m2
01:14 23.3 °F 12.2 °F 30.00 in NW 0.2 mph 6 mph 62% 0.00 in 0 W/m2
01:19 23.3 °F 12.2 °F 30.00 in NW 0.7 mph 6 mph 62% 0.00 in 0 W/m2
01:24 23.2 °F 12.2 °F 30.00 in NW 0.1 mph 6 mph 62% 0.00 in 0 W/m2
01:29 23.2 °F 12.1 °F 30.00 in NW 1.1 mph 6 mph 62% 0.00 in 0 W/m2
01:34 23.2 °F 12.1 °F 30.00 in Calm   6 mph 62% 0.00 in 0 W/m2
01:39 23.1 °F 12 °F 30.00 in Calm     62% 0.00 in 0 W/m2
01:44 23 °F 12 °F 29.99 in Calm     62% 0.00 in 0 W/m2
01:49 23 °F 11.9 °F 29.99 in Calm     62% 0.00 in 0 W/m2
01:54 22.9 °F 12 °F 29.99 in Calm     62.3% 0.00 in 0 W/m2
01:59 22.9 °F 12.2 °F 29.99 in Calm     63% 0.00 in 0 W/m2
02:04 22.8 °F 12.1 °F 29.98 in Calm     63% 0.00 in 0 W/m2
02:09 22.7 °F 12 °F 29.97 in Calm     63% 0.00 in 0 W/m2
02:14 22.6 °F 12.3 °F 29.97 in Calm     64.1% 0.00 in 0 W/m2
02:17 22.5 °F 12.5 °F 29.96 in Calm     65% 0.00 in 0 W/m2
03:00 22.1 °F 12.8 °F 29.94 in Calm     67% 0.00 in 0 W/m2
03:30 22 °F 14.1 °F 29.94 in Calm     71% 0.00 in 0 W/m2
04:04 21.7 °F 13.8 °F 29.94 in Calm     71% 0.00 in 0 W/m2
04:09 21.7 °F 14 °F 29.92 in Calm     71.8% 0.00 in 0 W/m2
04:14 21.7 °F 14.1 °F 29.92 in Calm     72.1% 0.00 in 0 W/m2
04:19 21.7 °F 14.4 °F 29.91 in Calm     73% 0.00 in 0 W/m2
04:24 21.6 °F 14.3 °F 29.91 in Calm     73% 0.00 in 0 W/m2
04:29 21.6 °F 14.3 °F 29.91 in Calm     73% 0.00 in 0 W/m2
04:34 21.5 °F 14.2 °F 29.91 in Calm     73% 0.00 in 0 W/m2
04:39 21.6 °F 14.3 °F 29.91 in Calm     73% 0.00 in 0 W/m2
04:44 21.6 °F 14.2 °F 29.91 in Calm     72.6% 0.00 in 0 W/m2
04:49 21.6 °F 14.5 °F 29.90 in Calm     73.7% 0.00 in 0 W/m2
04:54 21.7 °F 15 °F 29.90 in Calm     75% 0.00 in 0 W/m2
04:59 21.6 °F 14.9 °F 29.90 in Calm     75% 0.00 in 0 W/m2
05:04 21.5 °F 14.9 °F 29.89 in Calm     75% 0.00 in 0 W/m2
05:09 21.4 °F 14.5 °F 29.88 in Calm     74.3% 0.00 in 0 W/m2
05:14 21.3 °F 14.2 °F 29.88 in Calm     73.7% 0.00 in 0 W/m2
05:19 21.3 °F 14 °F 29.88 in Calm     73.2% 0.00 in 0 W/m2
05:24 21.2 °F 14 °F 29.88 in Calm     73.4% 0.00 in 0 W/m2
05:29 21.1 °F 14.1 °F 29.89 in Calm     74% 0.00 in 0 W/m2
05:34 21 °F 14 °F 29.88 in Calm     74% 0.00 in 0 W/m2
05:39 20.8 °F 14 °F 29.87 in Calm     74.5% 0.00 in 0 W/m2
05:44 20.7 °F 14 °F 29.87 in Calm     75% 0.00 in 0 W/m2
05:49 20.6 °F 13.9 °F 29.87 in Calm     75% 0.00 in 0 W/m2
05:54 20.5 °F 13.8 °F 29.87 in Calm     75% 0.00 in 0 W/m2
05:59 20.4 °F 13.7 °F 29.87 in Calm     75% 0.00 in 0 W/m2
06:04 20.3 °F 13.6 °F 29.87 in Calm     75% 0.00 in 0 W/m2
06:09 20.2 °F 13.7 °F 29.87 in Calm     75.4% 0.00 in 0 W/m2
06:14 20.1 °F 13.8 °F 29.87 in Calm     76% 0.00 in 0 W/m2
06:19 20.1 °F 13.9 °F 29.87 in Calm     76.7% 0.00 in 0 W/m2
06:24 20 °F 13.9 °F 29.86 in Calm     77% 0.00 in 0 W/m2
06:29 19.9 °F 14 °F 29.87 in Calm     77.6% 0.00 in 0 W/m2
06:34 19.9 °F 14.2 °F 29.86 in Calm     78% 0.00 in 0 W/m2
06:39 19.9 °F 14.2 °F 29.86 in Calm     78% 0.00 in 0 W/m2
06:44 20 °F 14.3 °F 29.87 in Calm     78% 0.00 in 0 W/m2
06:49 20 °F 14.3 °F 29.86 in Calm     78% 0.00 in 0 W/m2
06:54 20 °F 14 °F 29.86 in Calm     77.2% 0.00 in 0 W/m2
06:59 20.1 °F 14 °F 29.85 in Calm     76.9% 0.00 in 0 W/m2
07:04 20.2 °F 13.9 °F 29.84 in Calm     76% 0.00 in 0 W/m2
07:09 20.3 °F 13.7 °F 29.84 in Calm     75.2% 0.00 in 0 W/m2
07:14 20.4 °F 13.8 °F 29.84 in Calm     75% 0.00 in 0 W/m2
07:19 20.5 °F 14 °F 29.84 in Calm     75.5% 0.00 in 7 W/m2
07:24 20.6 °F 14.2 °F 29.84 in Calm     76% 0.00 in 11 W/m2
07:29 20.6 °F 14.3 °F 29.84 in Calm     76% 0.00 in 19 W/m2
07:34 20.6 °F 14.3 °F 29.84 in Calm     76% 0.00 in 21 W/m2
07:39 20.7 °F 14.3 °F 29.84 in Calm     76% 0.00 in 35 W/m2
07:44 20.7 °F 14.5 °F 29.84 in Calm     76.5% 0.00 in 35 W/m2
07:49 20.8 °F 14.8 °F 29.84 in Calm     77% 0.00 in 33 W/m2
07:54 20.9 °F 14.9 °F 29.84 in Calm     77% 0.00 in 53 W/m2
07:59 21.1 °F 15 °F 29.84 in Calm     77% 0.00 in 86 W/m2
08:04 21.6 °F 15.8 °F 29.84 in Calm     78% 0.00 in 58 W/m2
08:09 21.8 °F 15.7 °F 29.84 in Calm   3 mph 77% 0.00 in 54 W/m2
08:14 22.1 °F 15.4 °F 29.84 in Calm   3 mph 75% 0.00 in 37 W/m2
08:19 22.4 °F 15 °F 29.84 in Calm   3 mph 73.1% 0.00 in 32 W/m2
08:24 22.4 °F 14.5 °F 29.83 in Calm   3 mph 71.3% 0.00 in 40 W/m2
08:29 22.5 °F 14.5 °F 29.82 in Calm   3 mph 71% 0.00 in 81 W/m2
08:34 22.6 °F 14.6 °F 29.82 in Calm   3 mph 71% 0.00 in 79 W/m2
08:39 22.7 °F 14.8 °F 29.82 in Calm     71% 0.00 in 100 W/m2
08:44 23 °F 15.1 °F 29.81 in Calm     71.3% 0.00 in 111 W/m2
08:49 23.2 °F 15 °F 29.80 in Calm     70.4% 0.00 in 178 W/m2
08:54 23.5 °F 15.1 °F 29.80 in NW 0.1 mph 2 mph 69.9% 0.00 in 253 W/m2
08:59 24 °F 15.3 °F 29.80 in WNW 0.3 mph 3 mph 68.8% 0.00 in 204 W/m2
09:04 24.5 °F 15.3 °F 29.81 in WSW 0.1 mph 3 mph 67.5% 0.00 in 121 W/m2
09:09 24.9 °F 15.5 °F 29.80 in WSW 0.2 mph 2 mph 67.1% 0.00 in 146 W/m2
09:14 25.1 °F 16.1 °F 29.80 in SW 0.4 mph 3 mph 68% 0.00 in 146 W/m2
09:19 25.4 °F 15.8 °F 29.80 in SW 0.2 mph 3 mph 66.5% 0.00 in 134 W/m2
09:24 25.7 °F 16.2 °F 29.80 in SSW 0.4 mph 3 mph 67% 0.00 in 128 W/m2
09:29 25.9 °F 16.2 °F 29.80 in SSW 0.1 mph 3 mph 66.1% 0.00 in 114 W/m2
09:34 26.1 °F 16.6 °F 29.79 in SSW 0.2 mph 3 mph 66.8% 0.00 in 111 W/m2
09:39 26.2 °F 16.8 °F 29.79 in Calm   3 mph 67% 0.00 in 107 W/m2
09:44 26.5 °F 17 °F 29.79 in South 0.6 mph 4 mph 67% 0.00 in 107 W/m2
09:49 26.8 °F 17.3 °F 29.78 in South 0.6 mph 4 mph 67% 0.00 in 121 W/m2
09:54 27.1 °F 17.8 °F 29.78 in SSW 0.6 mph 5 mph 67.5% 0.00 in 113 W/m2
09:59 27.4 °F 18 °F 29.78 in SSW 0.1 mph 5 mph 67.2% 0.00 in 109 W/m2
10:04 27.7 °F 18.2 °F 29.78 in SSW 0.3 mph 5 mph 67% 0.00 in 113 W/m2
10:09 27.9 °F 18.3 °F 29.78 in SSW 0.5 mph 3 mph 66.7% 0.00 in 123 W/m2
10:14 28.2 °F 19 °F 29.77 in SSW 0.3 mph 3 mph 67.9% 0.00 in 130 W/m2
10:19 28.5 °F 19 °F 29.77 in SSW 0.1 mph 3 mph 67% 0.00 in 125 W/m2
10:24 28.9 °F 19.3 °F 29.77 in SSW 0.6 mph 3 mph 67% 0.00 in 127 W/m2
10:29 29.2 °F 19.7 °F 29.77 in SW 0.9 mph 9 mph 67% 0.00 in 127 W/m2
10:34 29.6 °F 20 °F 29.77 in SW 0.6 mph 9 mph 67% 0.00 in 107 W/m2
10:39 29.8 °F 20.2 °F 29.77 in SW 0.7 mph 4 mph 67% 0.00 in 77 W/m2
10:44 30.1 °F 20.5 °F 29.77 in Calm   4 mph 67% 0.00 in 56 W/m2
10:49 30.2 °F 20.6 °F 29.76 in SW 0.1 mph 4 mph 67% 0.00 in 54 W/m2
10:54 30.4 °F 20.8 °F 29.76 in SW 0.6 mph 4 mph 67.3% 0.00 in 46 W/m2
10:59 30.5 °F 21.2 °F 29.76 in SW 0.7 mph 4 mph 68% 0.00 in 40 W/m2
11:04 30.6 °F 21.1 °F 29.76 in SW 1.1 mph 4 mph 67.4% 0.00 in 42 W/m2
11:09 30.7 °F 21.1 °F 29.75 in SW 0.3 mph 4 mph 67% 0.00 in 47 W/m2
11:14 30.8 °F 21.2 °F 29.75 in SW 0.2 mph 4 mph 67% 0.00 in 60 W/m2
11:19 30.9 °F 21.6 °F 29.74 in SW 0.9 mph 5 mph 67.9% 0.00 in 95 W/m2
11:24 31.1 °F 21.4 °F 29.74 in SW 1.3 mph 6 mph 67% 0.00 in 127 W/m2
11:29 31.3 °F 21.6 °F 29.73 in SW 1.2 mph 7 mph 67% 0.00 in 132 W/m2
11:34 31.6 °F 21.9 °F 29.72 in SSW 1.2 mph 7 mph 66.9% 0.00 in 132 W/m2
11:39 31.8 °F 21.8 °F 29.71 in SSW 2.4 mph 9 mph 66% 0.00 in 141 W/m2
11:44 32.1 °F 21.7 °F 29.71 in SW 3.9 mph 9 mph 65.1% 0.00 in 158 W/m2
11:47 32.2 °F 21.5 °F 29.70 in SW 3.5 mph 9 mph 64.2% 0.00 in 176 W/m2
12:04 33.3 °F 22.1 °F 29.69 in SW 1 mph 1 mph 63% 0.00 in 192 W/m2
12:09 33.4 °F 22.2 °F 29.69 in SW 1.6 mph 6 mph 63% 0.00 in 192 W/m2
12:14 33.6 °F 22.3 °F 29.69 in SW 0.4 mph 6 mph 62.8% 0.00 in 90 W/m2
12:19 33.7 °F 22.3 °F 29.69 in SW 1.2 mph 6 mph 62.6% 0.00 in 62 W/m2
12:24 33.7 °F 22.1 °F 29.69 in SW 3.2 mph 13 mph 62% 0.00 in 53 W/m2
12:29 33.5 °F 21.6 °F 29.68 in SW 3.5 mph 13 mph 61.4% 0.00 in 56 W/m2
12:34 33.4 °F 21.6 °F 29.68 in SW 3.2 mph 13 mph 61.7% 0.00 in 54 W/m2
12:39 33.3 °F 21.4 °F 29.68 in SW 2.5 mph 7 mph 61.3% 0.00 in 47 W/m2
12:44 33.2 °F 21.6 °F 29.67 in SW 1.4 mph 7 mph 62% 0.00 in 40 W/m2
12:49 33.2 °F 21.6 °F 29.67 in SW 2.8 mph 11 mph 62% 0.00 in 44 W/m2
12:54 33.2 °F 21.3 °F 29.67 in SW 1.5 mph 11 mph 61.2% 0.00 in 40 W/m2
12:59 33.3 °F 21.7 °F 29.66 in SW 0.7 mph 11 mph 62% 0.00 in 49 W/m2
13:04 33.3 °F 21.7 °F 29.66 in SW 0.6 mph 11 mph 62% 0.00 in 49 W/m2
13:09 33.4 °F 21.6 °F 29.66 in SW 3 mph 9 mph 61.3% 0.00 in 60 W/m2
13:14 33.5 °F 21.5 °F 29.66 in SSW 1.1 mph 9 mph 61% 0.00 in 91 W/m2
13:19 33.6 °F 21.7 °F 29.65 in SSW 0.1 mph 9 mph 61.2% 0.00 in 97 W/m2
13:24 33.8 °F 22.1 °F 29.65 in SSW 0.7 mph 9 mph 61.7% 0.00 in 102 W/m2
13:29 34 °F 22 °F 29.64 in SSW 0.2 mph 9 mph 61% 0.00 in 142 W/m2
13:34 34.3 °F 22 °F 29.64 in SW 1.3 mph 9 mph 60.5% 0.00 in 160 W/m2
13:39 34.6 °F 22.1 °F 29.64 in SW 1 mph 6 mph 59.8% 0.00 in 160 W/m2
13:44 34.9 °F 22.4 °F 29.63 in SW 1.1 mph 9 mph 59.9% 0.00 in 156 W/m2
13:49 35.1 °F 22.3 °F 29.63 in SW 1.6 mph 9 mph 59% 0.00 in 134 W/m2
13:54 35.3 °F 22.4 °F 29.63 in SW 0.3 mph 9 mph 59% 0.00 in 132 W/m2
13:59 35.5 °F 22.6 °F 29.63 in SW 1 mph 9 mph 59% 0.00 in 137 W/m2
14:04 35.6 °F 22.4 °F 29.63 in SW 2.3 mph 9 mph 58.3% 0.00 in 142 W/m2
14:09 35.7 °F 22.4 °F 29.62 in SW 1.1 mph 7 mph 58% 0.00 in 137 W/m2
14:14 35.9 °F 22.6 °F 29.63 in SW 0.7 mph 7 mph 58% 0.00 in 139 W/m2
14:19 36.1 °F 22.9 °F 29.62 in SW 1.2 mph 7 mph 58.3% 0.00 in 135 W/m2
14:24 36.3 °F 22.5 °F 29.62 in Calm   7 mph 57% 0.00 in 134 W/m2
14:29 36.4 °F 22.9 °F 29.63 in Calm   7 mph 57.7% 0.00 in 132 W/m2
14:34 36.5 °F 23.3 °F 29.63 in SW 0.1 mph 7 mph 58.2% 0.00 in 98 W/m2
14:39 36.6 °F 23.1 °F 29.63 in SW 0.4 mph 3 mph 57.6% 0.00 in 97 W/m2
14:44 36.7 °F 22.8 °F 29.62 in SW 0.5 mph 3 mph 56.8% 0.00 in 77 W/m2
14:49 36.7 °F 22.7 °F 29.62 in SW 0.3 mph 4 mph 56.4% 0.00 in 74 W/m2
14:54 36.7 °F 23.1 °F 29.62 in SW 0.7 mph 4 mph 57.4% 0.00 in 84 W/m2
14:59 36.7 °F 22.8 °F 29.62 in SW 1.5 mph 8 mph 56.9% 0.00 in 91 W/m2
15:04 36.7 °F 22.9 °F 29.62 in Calm   8 mph 56.9% 0.00 in 102 W/m2
15:09 36.7 °F 23.2 °F 29.62 in SW 1.2 mph 4 mph 57.7% 0.00 in 74 W/m2
15:14 36.8 °F 23 °F 29.62 in SW 0.1 mph 4 mph 57% 0.00 in 83 W/m2
15:19 36.8 °F 23.1 °F 29.62 in SW 0.5 mph 4 mph 57.2% 0.00 in 88 W/m2
15:24 37 °F 23.2 °F 29.62 in SW 0.3 mph 4 mph 57.1% 0.00 in 84 W/m2
15:29 37.1 °F 23.4 °F 29.62 in Calm   4 mph 57.3% 0.00 in 63 W/m2
15:34 37.2 °F 23.8 °F 29.62 in SW 0.2 mph 4 mph 57.9% 0.00 in 42 W/m2
15:39 37.2 °F 23.2 °F 29.61 in SW 0.2 mph 3 mph 56.5% 0.00 in 54 W/m2
15:44 37.1 °F 22.9 °F 29.61 in Calm   3 mph 56.1% 0.00 in 58 W/m2
15:49 37.1 °F 23.3 °F 29.61 in Calm   3 mph 57.1% 0.00 in 58 W/m2
15:54 37 °F 23.6 °F 29.61 in SW 0.1 mph 3 mph 58% 0.00 in 51 W/m2
15:58 37 °F 23.2 °F 29.61 in SW 0.3 mph 3 mph 57% 0.00 in 42 W/m2
16:04 37 °F 23.6 °F 29.61 in Calm     58% 0.00 in 25 W/m2
16:09 37 °F 23.6 °F 29.61 in SW 0.2 mph 2 mph 58% 0.00 in 23 W/m2
16:14 36.9 °F 23.5 °F 29.61 in SW 0.1 mph 2 mph 58% 0.00 in 19 W/m2
16:19 36.9 °F 23.5 °F 29.61 in SW 0.3 mph 2 mph 58% 0.00 in 16 W/m2
16:24 36.8 °F 23.4 °F 29.61 in SW 0.1 mph 2 mph 58% 0.00 in 14 W/m2
16:29 36.7 °F 23.4 °F 29.61 in SW 0.9 mph 6 mph 58.3% 0.00 in 12 W/m2
16:34 36.6 °F 23.4 °F 29.62 in Calm   6 mph 58.3% 0.00 in 11 W/m2
16:39 36.5 °F 23.6 °F 29.62 in Calm   1 mph 59% 0.00 in 9 W/m2
16:44 36.4 °F 23.7 °F 29.62 in Calm   1 mph 59.5% 0.00 in 7 W/m2
16:49 36.3 °F 23.3 °F 29.62 in Calm   1 mph 59% 0.00 in 5 W/m2
16:54 36.1 °F 23.2 °F 29.62 in Calm   1 mph 59% 0.00 in 0 W/m2
16:59 35.9 °F 23.1 °F 29.61 in Calm   1 mph 59.2% 0.00 in 0 W/m2
17:04 35.7 °F 23.2 °F 29.62 in Calm   1 mph 60% 0.00 in 0 W/m2
17:09 35.5 °F 23 °F 29.62 in Calm     60% 0.00 in 0 W/m2
17:14 35.3 °F 22.9 °F 29.61 in Calm     60.3% 0.00 in 0 W/m2
17:19 35.1 °F 23 °F 29.62 in Calm     61% 0.00 in 0 W/m2
17:24 35 °F 22.9 °F 29.62 in Calm     61% 0.00 in 0 W/m2
17:29 34.8 °F 22.9 °F 29.62 in Calm     61.4% 0.00 in 0 W/m2
17:34 34.7 °F 23.1 °F 29.62 in Calm     62% 0.00 in 0 W/m2
17:39 34.7 °F 23 °F 29.62 in Calm     62% 0.00 in 0 W/m2
17:44 34.7 °F 23 °F 29.62 in Calm     62% 0.00 in 0 W/m2
17:49 34.7 °F 23 °F 29.62 in Calm     62% 0.00 in 0 W/m2
17:54 34.7 °F 23 °F 29.62 in Calm     62% 0.00 in 0 W/m2
17:59 34.4 °F 22.8 °F 29.62 in Calm     62.2% 0.00 in 0 W/m2
18:04 34 °F 22.8 °F 29.62 in Calm     63.1% 0.00 in 0 W/m2
18:09 33.7 °F 23 °F 29.62 in Calm     64.5% 0.00 in 0 W/m2
18:14 33.4 °F 22.6 °F 29.62 in Calm     64% 0.00 in 0 W/m2
18:19 33.1 °F 22.5 °F 29.62 in Calm     64.6% 0.00 in 0 W/m2
18:24 32.9 °F 22.7 °F 29.62 in Calm     65.8% 0.00 in 0 W/m2
18:29 32.7 °F 22.6 °F 29.62 in Calm     66% 0.00 in 0 W/m2
18:34 32.4 °F 22.5 °F 29.62 in Calm     66.4% 0.00 in 0 W/m2
18:39 32.2 °F 22.6 °F 29.62 in Calm     67.2% 0.00 in 0 W/m2
18:44 31.9 °F 22.6 °F 29.62 in Calm     68% 0.00 in 0 W/m2
18:49 31.6 °F 22.4 °F 29.62 in Calm     68.1% 0.00 in 0 W/m2
18:54 31.4 °F 22.6 °F 29.62 in Calm     69.4% 0.00 in 0 W/m2
18:59 31.2 °F 22.7 °F 29.62 in Calm     70.3% 0.00 in 0 W/m2
19:04 31.1 °F 22.8 °F 29.62 in Calm     71% 0.00 in 0 W/m2
19:09 30.9 °F 22.8 °F 29.62 in Calm   1 mph 71.7% 0.00 in 0 W/m2
19:14 30.7 °F 22.7 °F 29.62 in WSW 0.9 mph 5 mph 72% 0.00 in 0 W/m2
19:19 30.5 °F 22.9 °F 29.62 in WSW 0.5 mph 5 mph 73% 0.00 in 0 W/m2
19:24 30.5 °F 22.9 °F 29.62 in WSW 0.6 mph 7 mph 73% 0.00 in 0 W/m2
19:29 30.6 °F 22.8 °F 29.62 in Calm   7 mph 72.4% 0.00 in 0 W/m2
19:34 30.9 °F 22.9 °F 29.62 in Calm   7 mph 72% 0.00 in 0 W/m2
19:39 31.1 °F 23.2 °F 29.62 in Calm     71.9% 0.00 in 0 W/m2
19:44 31.3 °F 23.1 °F 29.62 in Calm     71.2% 0.00 in 0 W/m2
19:49 31.4 °F 23.1 °F 29.62 in Calm     71% 0.00 in 0 W/m2
19:54 31.6 °F 23.3 °F 29.62 in Calm     71% 0.00 in 0 W/m2
19:59 31.8 °F 23.3 °F 29.62 in Calm     70.6% 0.00 in 0 W/m2
20:04 31.9 °F 23.2 °F 29.62 in Calm     70% 0.00 in 0 W/m2
20:09 32 °F 23.3 °F 29.62 in Calm     70% 0.00 in 0 W/m2
20:14 32.1 °F 23.3 °F 29.61 in Calm     69.6% 0.00 in 0 W/m2
20:19 32.2 °F 23.2 °F 29.61 in Calm     69% 0.00 in 0 W/m2
20:24 32.3 °F 23.3 °F 29.61 in Calm     69% 0.00 in 0 W/m2
20:29 32.5 °F 23.5 °F 29.60 in Calm     69% 0.00 in 0 W/m2
20:34 32.6 °F 23.3 °F 29.60 in Calm     68.2% 0.00 in 0 W/m2
20:39 32.4 °F 23.3 °F 29.60 in Calm     68.6% 0.00 in 0 W/m2
20:44 32.1 °F 23.1 °F 29.60 in Calm     69.1% 0.00 in 0 W/m2
20:49 31.7 °F 23 °F 29.60 in Calm     70% 0.00 in 0 W/m2
20:54 31.4 °F 22.8 °F 29.60 in Calm     70% 0.00 in 0 W/m2
20:59 31.2 °F 22.9 °F 29.60 in Calm     71% 0.00 in 0 W/m2
21:04 31 °F 22.9 °F 29.60 in Calm     71.7% 0.00 in 0 W/m2
21:09 30.9 °F 23 °F 29.60 in Calm     72.1% 0.00 in 0 W/m2
21:14 30.8 °F 23.2 °F 29.60 in Calm     73% 0.00 in 0 W/m2
21:19 30.8 °F 23.2 °F 29.60 in Calm     73% 0.00 in 0 W/m2
21:24 30.7 °F 23.1 °F 29.60 in Calm     73% 0.00 in 0 W/m2
21:29 30.7 °F 23.4 °F 29.60 in Calm     73.9% 0.00 in 0 W/m2
21:34 30.8 °F 23.5 °F 29.59 in Calm     74% 0.00 in 0 W/m2
21:39 31 °F 23.4 °F 29.59 in Calm     73.1% 0.00 in 0 W/m2
21:44 31.2 °F 23.6 °F 29.59 in Calm     73% 0.00 in 0 W/m2
21:49 31.4 °F 23.8 °F 29.59 in Calm     73% 0.00 in 0 W/m2
21:54 31.6 °F 23.6 °F 29.59 in Calm     72.1% 0.00 in 0 W/m2
21:59 31.7 °F 23.7 °F 29.58 in Calm     72% 0.00 in 0 W/m2
22:04 31.9 °F 23.7 °F 29.58 in Calm     71.5% 0.00 in 0 W/m2
22:09 32.1 °F 24 °F 29.58 in Calm     71.8% 0.00 in 0 W/m2
22:14 32.2 °F 23.9 °F 29.58 in Calm     71.2% 0.00 in 0 W/m2
22:19 32.2 °F 24.2 °F 29.58 in Calm     72% 0.00 in 0 W/m2
22:24 32.2 °F 24.2 °F 29.58 in Calm     72% 0.00 in 0 W/m2
22:29 32.1 °F 24.1 °F 29.58 in Calm     72% 0.00 in 0 W/m2
22:34 31.8 °F 24.1 °F 29.58 in Calm     72.8% 0.00 in 0 W/m2
22:39 31.6 °F 24 °F 29.58 in Calm     73% 0.00 in 0 W/m2
22:44 31.5 °F 24.1 °F 29.58 in Calm     73.9% 0.00 in 0 W/m2
22:49 31.4 °F 24.2 °F 29.58 in Calm     74.3% 0.00 in 0 W/m2
22:54 31.4 °F 24.4 °F 29.58 in Calm     75% 0.00 in 0 W/m2
22:59 31.5 °F 24.5 °F 29.58 in Calm     75% 0.00 in 0 W/m2
23:00 31.5 °F 24.5 °F 29.58 in Calm     75% 0.00 in 0 W/m2
23:09 31.7 °F 24.4 °F 29.58 in Calm     74% 0.00 in 0 W/m2
23:14 31.9 °F 24.5 °F 29.58 in Calm     74% 0.00 in 0 W/m2
23:19 31.9 °F 24.6 °F 29.58 in Calm   1 mph 74% 0.00 in 0 W/m2
23:24 32.1 °F 24.5 °F 29.58 in Calm   1 mph 73.4% 0.00 in 0 W/m2
23:29 32.2 °F 24.6 °F 29.58 in Calm   1 mph 73% 0.00 in 0 W/m2
23:34 32.4 °F 24.7 °F 29.57 in Calm   1 mph 72.8% 0.00 in 0 W/m2
23:39 32.6 °F 24.6 °F 29.57 in Calm     72% 0.00 in 0 W/m2
23:44 32.8 °F 24.8 °F 29.57 in Calm     72.2% 0.00 in 0 W/m2
23:49 32.9 °F 24.9 °F 29.57 in Calm   1 mph 72% 0.00 in 0 W/m2
23:54 33 °F 24.9 °F 29.57 in Calm   1 mph 72% 0.00 in 0 W/m2
23:59 33 °F 25.2 °F 29.57 in WSW 0.1 mph 2 mph 72.7% 0.00 in 0 W/m2
Hartford County Weather
Compliments of Weather Underground - 4 mb